sensor_id;sensor_type;location;lat;lon;timestamp;P1;durP1;ratioP1;P2;durP2;ratioP2
16775;SDS011;8505;49.456;8.164;2022-07-11T00:01:18;5.30;;;2.95;;
16775;SDS011;8505;49.456;8.164;2022-07-11T00:03:45;3.65;;;2.75;;
16775;SDS011;8505;49.456;8.164;2022-07-11T00:06:13;3.95;;;2.97;;
16775;SDS011;8505;49.456;8.164;2022-07-11T00:08:41;4.28;;;2.95;;
16775;SDS011;8505;49.456;8.164;2022-07-11T00:11:08;4.20;;;2.75;;
16775;SDS011;8505;49.456;8.164;2022-07-11T00:13:36;3.95;;;2.80;;
16775;SDS011;8505;49.456;8.164;2022-07-11T00:16:06;6.18;;;3.03;;
16775;SDS011;8505;49.456;8.164;2022-07-11T00:18:38;4.45;;;2.90;;
16775;SDS011;8505;49.456;8.164;2022-07-11T00:21:06;5.22;;;2.90;;
16775;SDS011;8505;49.456;8.164;2022-07-11T00:23:33;4.43;;;2.58;;
16775;SDS011;8505;49.456;8.164;2022-07-11T00:26:01;4.68;;;2.90;;
16775;SDS011;8505;49.456;8.164;2022-07-11T00:28:28;6.95;;;2.85;;
16775;SDS011;8505;49.456;8.164;2022-07-11T00:30:56;5.10;;;2.70;;
16775;SDS011;8505;49.456;8.164;2022-07-11T00:33:25;3.50;;;2.90;;
16775;SDS011;8505;49.456;8.164;2022-07-11T00:35:53;3.53;;;3.20;;
16775;SDS011;8505;49.456;8.164;2022-07-11T00:38:21;4.18;;;3.00;;
16775;SDS011;8505;49.456;8.164;2022-07-11T00:40:48;5.38;;;2.90;;
16775;SDS011;8505;49.456;8.164;2022-07-11T00:43:16;4.25;;;2.83;;
16775;SDS011;8505;49.456;8.164;2022-07-11T00:45:47;4.28;;;2.80;;
16775;SDS011;8505;49.456;8.164;2022-07-11T00:48:15;6.13;;;2.70;;
16775;SDS011;8505;49.456;8.164;2022-07-11T00:50:44;4.10;;;2.90;;
16775;SDS011;8505;49.456;8.164;2022-07-11T00:53:12;4.95;;;3.00;;
16775;SDS011;8505;49.456;8.164;2022-07-11T00:55:40;5.20;;;3.22;;
16775;SDS011;8505;49.456;8.164;2022-07-11T00:58:08;4.07;;;3.00;;
16775;SDS011;8505;49.456;8.164;2022-07-11T01:00:36;4.10;;;2.88;;
16775;SDS011;8505;49.456;8.164;2022-07-11T01:03:04;2.90;;;2.55;;
16775;SDS011;8505;49.456;8.164;2022-07-11T01:05:31;5.07;;;3.10;;
16775;SDS011;8505;49.456;8.164;2022-07-11T01:08:00;4.65;;;2.83;;
16775;SDS011;8505;49.456;8.164;2022-07-11T01:10:28;4.20;;;3.08;;
16775;SDS011;8505;49.456;8.164;2022-07-11T01:12:56;4.03;;;2.97;;
16775;SDS011;8505;49.456;8.164;2022-07-11T01:15:24;4.07;;;2.95;;
16775;SDS011;8505;49.456;8.164;2022-07-11T01:17:52;4.43;;;3.00;;
16775;SDS011;8505;49.456;8.164;2022-07-11T01:20:20;4.90;;;3.40;;
16775;SDS011;8505;49.456;8.164;2022-07-11T01:22:51;4.07;;;3.38;;
16775;SDS011;8505;49.456;8.164;2022-07-11T01:25:21;5.47;;;3.50;;
16775;SDS011;8505;49.456;8.164;2022-07-11T01:27:58;4.75;;;3.33;;
16775;SDS011;8505;49.456;8.164;2022-07-11T01:30:26;5.53;;;3.30;;
16775;SDS011;8505;49.456;8.164;2022-07-11T01:32:55;4.83;;;3.33;;
16775;SDS011;8505;49.456;8.164;2022-07-11T01:35:24;5.77;;;3.60;;
16775;SDS011;8505;49.456;8.164;2022-07-11T01:37:52;4.65;;;3.22;;
16775;SDS011;8505;49.456;8.164;2022-07-11T01:40:29;5.43;;;3.70;;
16775;SDS011;8505;49.456;8.164;2022-07-11T01:42:57;5.00;;;3.60;;
16775;SDS011;8505;49.456;8.164;2022-07-11T01:45:25;5.55;;;3.35;;
16775;SDS011;8505;49.456;8.164;2022-07-11T01:47:53;6.07;;;3.50;;
16775;SDS011;8505;49.456;8.164;2022-07-11T01:50:20;5.43;;;3.55;;
16775;SDS011;8505;49.456;8.164;2022-07-11T01:52:48;5.50;;;3.60;;
16775;SDS011;8505;49.456;8.164;2022-07-11T01:55:16;5.20;;;3.58;;
16775;SDS011;8505;49.456;8.164;2022-07-11T01:57:45;3.80;;;3.40;;
16775;SDS011;8505;49.456;8.164;2022-07-11T02:00:12;6.18;;;3.60;;
16775;SDS011;8505;49.456;8.164;2022-07-11T02:02:40;5.47;;;3.45;;
16775;SDS011;8505;49.456;8.164;2022-07-11T02:05:08;6.07;;;3.35;;
16775;SDS011;8505;49.456;8.164;2022-07-11T02:07:36;4.72;;;3.30;;
16775;SDS011;8505;49.456;8.164;2022-07-11T02:10:21;4.50;;;3.35;;
16775;SDS011;8505;49.456;8.164;2022-07-11T02:12:50;6.03;;;3.40;;
16775;SDS011;8505;49.456;8.164;2022-07-11T02:15:18;6.15;;;3.50;;
16775;SDS011;8505;49.456;8.164;2022-07-11T02:17:45;5.32;;;3.38;;
16775;SDS011;8505;49.456;8.164;2022-07-11T02:20:13;4.88;;;3.63;;
16775;SDS011;8505;49.456;8.164;2022-07-11T02:22:43;5.90;;;3.50;;
16775;SDS011;8505;49.456;8.164;2022-07-11T02:25:11;5.05;;;3.30;;
16775;SDS011;8505;49.456;8.164;2022-07-11T02:27:39;5.80;;;3.53;;
16775;SDS011;8505;49.456;8.164;2022-07-11T02:30:08;4.00;;;3.17;;
16775;SDS011;8505;49.456;8.164;2022-07-11T02:32:36;5.50;;;3.20;;
16775;SDS011;8505;49.456;8.164;2022-07-11T02:35:05;5.75;;;3.42;;
16775;SDS011;8505;49.456;8.164;2022-07-11T02:37:33;4.47;;;3.10;;
16775;SDS011;8505;49.456;8.164;2022-07-11T02:40:01;5.93;;;3.28;;
16775;SDS011;8505;49.456;8.164;2022-07-11T02:42:29;5.57;;;3.40;;
16775;SDS011;8505;49.456;8.164;2022-07-11T02:44:56;4.40;;;3.20;;
16775;SDS011;8505;49.456;8.164;2022-07-11T02:47:25;6.03;;;3.22;;
16775;SDS011;8505;49.456;8.164;2022-07-11T02:49:53;3.85;;;3.20;;
16775;SDS011;8505;49.456;8.164;2022-07-11T02:52:21;5.22;;;3.40;;
16775;SDS011;8505;49.456;8.164;2022-07-11T02:54:48;5.50;;;3.40;;
16775;SDS011;8505;49.456;8.164;2022-07-11T02:57:16;6.35;;;3.30;;
16775;SDS011;8505;49.456;8.164;2022-07-11T02:59:43;4.20;;;3.20;;
16775;SDS011;8505;49.456;8.164;2022-07-11T03:02:11;3.85;;;3.30;;
16775;SDS011;8505;49.456;8.164;2022-07-11T03:04:40;4.63;;;3.20;;
16775;SDS011;8505;49.456;8.164;2022-07-11T03:07:08;4.63;;;3.20;;
16775;SDS011;8505;49.456;8.164;2022-07-11T03:09:36;4.18;;;3.35;;
16775;SDS011;8505;49.456;8.164;2022-07-11T03:12:04;4.82;;;3.30;;
16775;SDS011;8505;49.456;8.164;2022-07-11T03:14:32;5.97;;;3.20;;
16775;SDS011;8505;49.456;8.164;2022-07-11T03:17:00;5.18;;;3.42;;
16775;SDS011;8505;49.456;8.164;2022-07-11T03:19:28;4.10;;;2.93;;
16775;SDS011;8505;49.456;8.164;2022-07-11T03:21:57;4.78;;;3.10;;
16775;SDS011;8505;49.456;8.164;2022-07-11T03:24:24;4.97;;;3.38;;
16775;SDS011;8505;49.456;8.164;2022-07-11T03:26:52;4.70;;;3.40;;
16775;SDS011;8505;49.456;8.164;2022-07-11T03:29:19;4.23;;;3.40;;
16775;SDS011;8505;49.456;8.164;2022-07-11T03:31:47;6.13;;;3.08;;
16775;SDS011;8505;49.456;8.164;2022-07-11T03:34:15;4.70;;;3.30;;
16775;SDS011;8505;49.456;8.164;2022-07-11T03:36:43;4.53;;;2.97;;
16775;SDS011;8505;49.456;8.164;2022-07-11T03:39:13;4.53;;;3.17;;
16775;SDS011;8505;49.456;8.164;2022-07-11T03:41:41;5.95;;;3.30;;
16775;SDS011;8505;49.456;8.164;2022-07-11T03:44:09;4.53;;;3.22;;
16775;SDS011;8505;49.456;8.164;2022-07-11T03:46:36;3.90;;;3.13;;
16775;SDS011;8505;49.456;8.164;2022-07-11T03:49:04;4.85;;;3.00;;
16775;SDS011;8505;49.456;8.164;2022-07-11T03:51:32;3.75;;;3.08;;
16775;SDS011;8505;49.456;8.164;2022-07-11T03:53:59;5.10;;;3.43;;
16775;SDS011;8505;49.456;8.164;2022-07-11T03:56:28;4.72;;;3.10;;
16775;SDS011;8505;49.456;8.164;2022-07-11T03:58:56;3.88;;;2.80;;
16775;SDS011;8505;49.456;8.164;2022-07-11T04:01:24;5.43;;;3.00;;
16775;SDS011;8505;49.456;8.164;2022-07-11T04:03:52;4.20;;;2.92;;
16775;SDS011;8505;49.456;8.164;2022-07-11T04:06:21;4.15;;;2.80;;
16775;SDS011;8505;49.456;8.164;2022-07-11T04:08:49;4.75;;;3.15;;
16775;SDS011;8505;49.456;8.164;2022-07-11T04:11:16;4.32;;;3.00;;
16775;SDS011;8505;49.456;8.164;2022-07-11T04:13:45;4.77;;;3.20;;
16775;SDS011;8505;49.456;8.164;2022-07-11T04:16:13;4.15;;;3.00;;
16775;SDS011;8505;49.456;8.164;2022-07-11T04:18:41;4.32;;;3.10;;
16775;SDS011;8505;49.456;8.164;2022-07-11T04:21:09;5.80;;;2.85;;
16775;SDS011;8505;49.456;8.164;2022-07-11T04:23:37;5.03;;;3.22;;
16775;SDS011;8505;49.456;8.164;2022-07-11T04:26:05;6.07;;;3.40;;
16775;SDS011;8505;49.456;8.164;2022-07-11T04:28:33;5.40;;;2.70;;
16775;SDS011;8505;49.456;8.164;2022-07-11T04:31:02;4.85;;;2.90;;
16775;SDS011;8505;49.456;8.164;2022-07-11T04:33:30;6.20;;;2.90;;
16775;SDS011;8505;49.456;8.164;2022-07-11T04:35:57;4.32;;;2.85;;
16775;SDS011;8505;49.456;8.164;2022-07-11T04:38:25;5.10;;;3.13;;
16775;SDS011;8505;49.456;8.164;2022-07-11T04:40:53;6.15;;;3.03;;
16775;SDS011;8505;49.456;8.164;2022-07-11T04:43:20;4.45;;;2.88;;
16775;SDS011;8505;49.456;8.164;2022-07-11T04:45:48;4.60;;;2.90;;
16775;SDS011;8505;49.456;8.164;2022-07-11T04:48:17;5.23;;;2.97;;
16775;SDS011;8505;49.456;8.164;2022-07-11T04:50:45;3.92;;;2.80;;
16775;SDS011;8505;49.456;8.164;2022-07-11T04:53:12;4.72;;;2.70;;
16775;SDS011;8505;49.456;8.164;2022-07-11T04:55:40;6.13;;;3.07;;
16775;SDS011;8505;49.456;8.164;2022-07-11T04:58:08;5.13;;;3.30;;
16775;SDS011;8505;49.456;8.164;2022-07-11T05:00:36;7.33;;;4.27;;
16775;SDS011;8505;49.456;8.164;2022-07-11T05:03:08;5.18;;;3.15;;
16775;SDS011;8505;49.456;8.164;2022-07-11T05:05:37;6.45;;;3.08;;
16775;SDS011;8505;49.456;8.164;2022-07-11T05:08:05;5.03;;;2.85;;
16775;SDS011;8505;49.456;8.164;2022-07-11T05:10:33;4.38;;;3.05;;
16775;SDS011;8505;49.456;8.164;2022-07-11T05:13:02;5.40;;;2.70;;
16775;SDS011;8505;49.456;8.164;2022-07-11T05:15:31;5.32;;;2.85;;
16775;SDS011;8505;49.456;8.164;2022-07-11T05:17:58;4.88;;;2.60;;
16775;SDS011;8505;49.456;8.164;2022-07-11T05:20:26;5.28;;;2.80;;
16775;SDS011;8505;49.456;8.164;2022-07-11T05:22:55;5.03;;;2.63;;
16775;SDS011;8505;49.456;8.164;2022-07-11T05:25:23;4.10;;;2.70;;
16775;SDS011;8505;49.456;8.164;2022-07-11T05:27:51;5.40;;;2.75;;
16775;SDS011;8505;49.456;8.164;2022-07-11T05:30:19;6.18;;;2.70;;
16775;SDS011;8505;49.456;8.164;2022-07-11T05:32:46;4.80;;;2.78;;
16775;SDS011;8505;49.456;8.164;2022-07-11T05:35:14;4.93;;;2.63;;
16775;SDS011;8505;49.456;8.164;2022-07-11T05:37:41;5.55;;;2.75;;
16775;SDS011;8505;49.456;8.164;2022-07-11T05:40:11;5.57;;;2.67;;
16775;SDS011;8505;49.456;8.164;2022-07-11T05:42:39;4.50;;;2.75;;
16775;SDS011;8505;49.456;8.164;2022-07-11T05:45:07;4.80;;;2.63;;
16775;SDS011;8505;49.456;8.164;2022-07-11T05:47:36;4.63;;;2.60;;
16775;SDS011;8505;49.456;8.164;2022-07-11T05:50:04;4.17;;;2.63;;
16775;SDS011;8505;49.456;8.164;2022-07-11T05:52:32;5.15;;;2.80;;
16775;SDS011;8505;49.456;8.164;2022-07-11T05:55:00;5.07;;;2.90;;
16775;SDS011;8505;49.456;8.164;2022-07-11T05:57:29;4.95;;;2.70;;
16775;SDS011;8505;49.456;8.164;2022-07-11T05:59:57;4.65;;;2.60;;
16775;SDS011;8505;49.456;8.164;2022-07-11T06:02:24;6.07;;;2.60;;
16775;SDS011;8505;49.456;8.164;2022-07-11T06:04:52;3.78;;;2.50;;
16775;SDS011;8505;49.456;8.164;2022-07-11T06:07:22;4.63;;;2.53;;
16775;SDS011;8505;49.456;8.164;2022-07-11T06:10:08;5.80;;;2.67;;
16775;SDS011;8505;49.456;8.164;2022-07-11T06:12:37;6.07;;;2.50;;
16775;SDS011;8505;49.456;8.164;2022-07-11T06:15:05;4.10;;;2.17;;
16775;SDS011;8505;49.456;8.164;2022-07-11T06:17:33;5.15;;;2.40;;
16775;SDS011;8505;49.456;8.164;2022-07-11T06:20:00;4.23;;;2.30;;
16775;SDS011;8505;49.456;8.164;2022-07-11T06:22:28;5.93;;;2.33;;
16775;SDS011;8505;49.456;8.164;2022-07-11T06:24:56;3.92;;;2.40;;
16775;SDS011;8505;49.456;8.164;2022-07-11T06:27:24;6.38;;;2.30;;
16775;SDS011;8505;49.456;8.164;2022-07-11T06:29:53;5.93;;;2.33;;
16775;SDS011;8505;49.456;8.164;2022-07-11T06:32:20;5.50;;;2.20;;
16775;SDS011;8505;49.456;8.164;2022-07-11T06:34:50;4.97;;;2.03;;
16775;SDS011;8505;49.456;8.164;2022-07-11T06:37:17;5.32;;;2.25;;
16775;SDS011;8505;49.456;8.164;2022-07-11T06:39:45;5.55;;;2.20;;
16775;SDS011;8505;49.456;8.164;2022-07-11T06:42:13;5.53;;;1.90;;
16775;SDS011;8505;49.456;8.164;2022-07-11T06:44:41;5.35;;;1.77;;
16775;SDS011;8505;49.456;8.164;2022-07-11T06:47:09;4.28;;;1.80;;
16775;SDS011;8505;49.456;8.164;2022-07-11T06:49:37;4.75;;;1.80;;
16775;SDS011;8505;49.456;8.164;2022-07-11T06:52:05;5.95;;;2.35;;
16775;SDS011;8505;49.456;8.164;2022-07-11T06:54:33;5.50;;;1.80;;
16775;SDS011;8505;49.456;8.164;2022-07-11T06:57:01;7.93;;;2.10;;
16775;SDS011;8505;49.456;8.164;2022-07-11T06:59:36;7.00;;;1.95;;
16775;SDS011;8505;49.456;8.164;2022-07-11T07:02:04;4.80;;;1.90;;
16775;SDS011;8505;49.456;8.164;2022-07-11T07:04:33;7.00;;;1.90;;
16775;SDS011;8505;49.456;8.164;2022-07-11T07:07:01;6.88;;;2.95;;
16775;SDS011;8505;49.456;8.164;2022-07-11T07:09:29;9.10;;;4.30;;
16775;SDS011;8505;49.456;8.164;2022-07-11T07:11:57;6.45;;;3.55;;
16775;SDS011;8505;49.456;8.164;2022-07-11T07:14:24;6.40;;;3.25;;
16775;SDS011;8505;49.456;8.164;2022-07-11T07:16:52;7.60;;;3.40;;
16775;SDS011;8505;49.456;8.164;2022-07-11T07:19:20;6.85;;;3.30;;
16775;SDS011;8505;49.456;8.164;2022-07-11T07:21:49;7.82;;;2.95;;
16775;SDS011;8505;49.456;8.164;2022-07-11T07:24:17;5.32;;;2.30;;
16775;SDS011;8505;49.456;8.164;2022-07-11T07:26:44;4.10;;;2.25;;
16775;SDS011;8505;49.456;8.164;2022-07-11T07:29:12;6.47;;;2.05;;
16775;SDS011;8505;49.456;8.164;2022-07-11T07:31:40;5.38;;;2.10;;
16775;SDS011;8505;49.456;8.164;2022-07-11T07:34:08;2.97;;;1.70;;
16775;SDS011;8505;49.456;8.164;2022-07-11T07:36:36;4.75;;;2.10;;
16775;SDS011;8505;49.456;8.164;2022-07-11T07:39:05;7.00;;;1.83;;
16775;SDS011;8505;49.456;8.164;2022-07-11T07:41:32;4.30;;;1.65;;
16775;SDS011;8505;49.456;8.164;2022-07-11T07:44:00;3.92;;;1.70;;
16775;SDS011;8505;49.456;8.164;2022-07-11T07:46:28;4.38;;;1.60;;
16775;SDS011;8505;49.456;8.164;2022-07-11T07:48:56;8.23;;;1.70;;
16775;SDS011;8505;49.456;8.164;2022-07-11T07:51:25;3.60;;;1.50;;
16775;SDS011;8505;49.456;8.164;2022-07-11T07:53:53;4.35;;;1.48;;
16775;SDS011;8505;49.456;8.164;2022-07-11T07:56:23;6.35;;;1.60;;
16775;SDS011;8505;49.456;8.164;2022-07-11T07:58:51;3.60;;;1.73;;
16775;SDS011;8505;49.456;8.164;2022-07-11T08:01:19;5.05;;;1.88;;
16775;SDS011;8505;49.456;8.164;2022-07-11T08:04:01;3.85;;;1.52;;
16775;SDS011;8505;49.456;8.164;2022-07-11T08:06:29;5.60;;;1.90;;
16775;SDS011;8505;49.456;8.164;2022-07-11T08:08:59;4.28;;;1.40;;
16775;SDS011;8505;49.456;8.164;2022-07-11T08:11:28;5.60;;;1.85;;
16775;SDS011;8505;49.456;8.164;2022-07-11T08:13:58;4.57;;;1.30;;
16775;SDS011;8505;49.456;8.164;2022-07-11T08:16:26;2.88;;;1.40;;
16775;SDS011;8505;49.456;8.164;2022-07-11T08:18:57;3.50;;;1.42;;
16775;SDS011;8505;49.456;8.164;2022-07-11T08:21:27;5.40;;;1.23;;
16775;SDS011;8505;49.456;8.164;2022-07-11T08:23:54;3.08;;;1.30;;
16775;SDS011;8505;49.456;8.164;2022-07-11T08:26:22;3.65;;;1.50;;
16775;SDS011;8505;49.456;8.164;2022-07-11T08:28:59;2.95;;;1.30;;
16775;SDS011;8505;49.456;8.164;2022-07-11T08:31:27;3.08;;;1.10;;
16775;SDS011;8505;49.456;8.164;2022-07-11T08:33:55;5.35;;;1.40;;
16775;SDS011;8505;49.456;8.164;2022-07-11T08:36:25;3.50;;;1.40;;
16775;SDS011;8505;49.456;8.164;2022-07-11T08:38:54;2.28;;;1.20;;
16775;SDS011;8505;49.456;8.164;2022-07-11T08:41:22;2.13;;;1.27;;
16775;SDS011;8505;49.456;8.164;2022-07-11T08:43:49;3.70;;;1.33;;
16775;SDS011;8505;49.456;8.164;2022-07-11T08:46:20;3.78;;;1.10;;
16775;SDS011;8505;49.456;8.164;2022-07-11T08:48:48;4.40;;;1.30;;
16775;SDS011;8505;49.456;8.164;2022-07-11T08:51:17;5.40;;;1.05;;
16775;SDS011;8505;49.456;8.164;2022-07-11T08:53:46;5.80;;;1.13;;
16775;SDS011;8505;49.456;8.164;2022-07-11T08:56:14;2.00;;;1.10;;
16775;SDS011;8505;49.456;8.164;2022-07-11T08:58:44;4.10;;;1.30;;
16775;SDS011;8505;49.456;8.164;2022-07-11T09:01:24;4.88;;;1.20;;
16775;SDS011;8505;49.456;8.164;2022-07-11T09:03:55;2.08;;;1.00;;
16775;SDS011;8505;49.456;8.164;2022-07-11T09:06:23;1.95;;;0.93;;
16775;SDS011;8505;49.456;8.164;2022-07-11T09:08:51;2.85;;;1.02;;
16775;SDS011;8505;49.456;8.164;2022-07-11T09:11:18;2.30;;;1.00;;
16775;SDS011;8505;49.456;8.164;2022-07-11T09:13:46;3.63;;;0.90;;
16775;SDS011;8505;49.456;8.164;2022-07-11T09:16:14;2.58;;;1.30;;
16775;SDS011;8505;49.456;8.164;2022-07-11T09:18:46;2.63;;;0.90;;
16775;SDS011;8505;49.456;8.164;2022-07-11T09:21:14;0.77;;;0.77;;
16775;SDS011;8505;49.456;8.164;2022-07-11T09:24:01;1.33;;;0.80;;
16775;SDS011;8505;49.456;8.164;2022-07-11T09:26:48;1.52;;;0.80;;
16775;SDS011;8505;49.456;8.164;2022-07-11T09:29:18;2.63;;;0.70;;
16775;SDS011;8505;49.456;8.164;2022-07-11T09:31:48;3.10;;;0.70;;
16775;SDS011;8505;49.456;8.164;2022-07-11T09:34:18;2.60;;;0.60;;
16775;SDS011;8505;49.456;8.164;2022-07-11T09:36:48;1.88;;;0.60;;
16775;SDS011;8505;49.456;8.164;2022-07-11T09:39:17;1.75;;;0.52;;
16775;SDS011;8505;49.456;8.164;2022-07-11T09:41:46;1.48;;;0.80;;
16775;SDS011;8505;49.456;8.164;2022-07-11T09:44:15;1.70;;;1.30;;
16775;SDS011;8505;49.456;8.164;2022-07-11T09:46:45;3.90;;;1.60;;
16775;SDS011;8505;49.456;8.164;2022-07-11T09:49:15;2.70;;;1.90;;
16775;SDS011;8505;49.456;8.164;2022-07-11T09:52:04;2.88;;;2.30;;
16775;SDS011;8505;49.456;8.164;2022-07-11T09:54:33;3.92;;;2.58;;
16775;SDS011;8505;49.456;8.164;2022-07-11T09:57:04;4.35;;;2.60;;
16775;SDS011;8505;49.456;8.164;2022-07-11T09:59:37;7.88;;;2.80;;
16775;SDS011;8505;49.456;8.164;2022-07-11T10:02:04;4.20;;;3.33;;
16775;SDS011;8505;49.456;8.164;2022-07-11T10:04:34;7.63;;;3.22;;
16775;SDS011;8505;49.456;8.164;2022-07-11T10:07:02;5.45;;;3.45;;
16775;SDS011;8505;49.456;8.164;2022-07-11T10:09:30;6.13;;;3.63;;
16775;SDS011;8505;49.456;8.164;2022-07-11T10:11:58;7.38;;;4.05;;
16775;SDS011;8505;49.456;8.164;2022-07-11T10:14:26;5.10;;;3.53;;
16775;SDS011;8505;49.456;8.164;2022-07-11T10:16:55;7.22;;;3.70;;
16775;SDS011;8505;49.456;8.164;2022-07-11T10:19:30;5.60;;;4.10;;
16775;SDS011;8505;49.456;8.164;2022-07-11T10:22:25;5.93;;;4.28;;
16775;SDS011;8505;49.456;8.164;2022-07-11T10:24:59;7.65;;;4.50;;
16775;SDS011;8505;49.456;8.164;2022-07-11T10:27:33;7.03;;;4.13;;
16775;SDS011;8505;49.456;8.164;2022-07-11T10:30:09;6.95;;;4.10;;
16775;SDS011;8505;49.456;8.164;2022-07-11T10:35:26;6.63;;;3.88;;
16775;SDS011;8505;49.456;8.164;2022-07-11T10:37:56;6.05;;;3.63;;
16775;SDS011;8505;49.456;8.164;2022-07-11T10:40:40;7.05;;;3.83;;
16775;SDS011;8505;49.456;8.164;2022-07-11T10:43:09;7.10;;;3.88;;
16775;SDS011;8505;49.456;8.164;2022-07-11T10:48:24;7.90;;;4.10;;
16775;SDS011;8505;49.456;8.164;2022-07-11T10:51:00;7.07;;;4.18;;
16775;SDS011;8505;49.456;8.164;2022-07-11T10:53:32;7.07;;;4.38;;
16775;SDS011;8505;49.456;8.164;2022-07-11T10:56:17;6.35;;;3.97;;
16775;SDS011;8505;49.456;8.164;2022-07-11T10:59:14;4.60;;;3.60;;
16775;SDS011;8505;49.456;8.164;2022-07-11T11:02:01;6.38;;;3.83;;
16775;SDS011;8505;49.456;8.164;2022-07-11T11:04:41;5.90;;;3.70;;
16775;SDS011;8505;49.456;8.164;2022-07-11T11:13:18;7.75;;;4.53;;
16775;SDS011;8505;49.456;8.164;2022-07-11T11:15:48;6.65;;;4.60;;
16775;SDS011;8505;49.456;8.164;2022-07-11T11:18:31;6.65;;;4.75;;
16775;SDS011;8505;49.456;8.164;2022-07-11T11:21:18;6.78;;;4.70;;
16775;SDS011;8505;49.456;8.164;2022-07-11T11:26:46;6.57;;;4.35;;
16775;SDS011;8505;49.456;8.164;2022-07-11T11:29:20;6.13;;;4.25;;
16775;SDS011;8505;49.456;8.164;2022-07-11T11:31:52;7.43;;;4.88;;
16775;SDS011;8505;49.456;8.164;2022-07-11T11:34:21;7.88;;;5.28;;
16775;SDS011;8505;49.456;8.164;2022-07-11T11:36:57;8.95;;;5.43;;
16775;SDS011;8505;49.456;8.164;2022-07-11T11:39:32;6.75;;;4.85;;
16775;SDS011;8505;49.456;8.164;2022-07-11T11:42:04;6.88;;;4.82;;
16775;SDS011;8505;49.456;8.164;2022-07-11T11:44:34;6.38;;;4.15;;
16775;SDS011;8505;49.456;8.164;2022-07-11T11:47:13;10.82;;;4.20;;
16775;SDS011;8505;49.456;8.164;2022-07-11T11:49:42;5.00;;;3.58;;
16775;SDS011;8505;49.456;8.164;2022-07-11T11:52:10;10.70;;;4.60;;
16775;SDS011;8505;49.456;8.164;2022-07-11T11:54:39;5.28;;;4.30;;
16775;SDS011;8505;49.456;8.164;2022-07-11T11:57:08;5.43;;;4.32;;
16775;SDS011;8505;49.456;8.164;2022-07-11T11:59:38;6.60;;;4.60;;
16775;SDS011;8505;49.456;8.164;2022-07-11T12:02:06;7.45;;;4.20;;
16775;SDS011;8505;49.456;8.164;2022-07-11T12:04:35;7.28;;;4.35;;
16775;SDS011;8505;49.456;8.164;2022-07-11T12:07:04;7.97;;;4.38;;
16775;SDS011;8505;49.456;8.164;2022-07-11T12:09:32;7.05;;;4.28;;
16775;SDS011;8505;49.456;8.164;2022-07-11T12:12:25;5.82;;;4.30;;
16775;SDS011;8505;49.456;8.164;2022-07-11T12:15:23;6.13;;;4.03;;
16775;SDS011;8505;49.456;8.164;2022-07-11T12:17:57;7.22;;;3.95;;
16775;SDS011;8505;49.456;8.164;2022-07-11T12:20:39;5.65;;;3.78;;
16775;SDS011;8505;49.456;8.164;2022-07-11T12:23:09;6.65;;;4.30;;
16775;SDS011;8505;49.456;8.164;2022-07-11T12:25:46;6.65;;;4.63;;
16775;SDS011;8505;49.456;8.164;2022-07-11T12:28:16;7.10;;;4.45;;
16775;SDS011;8505;49.456;8.164;2022-07-11T12:30:44;8.38;;;4.88;;
16775;SDS011;8505;49.456;8.164;2022-07-11T12:33:12;6.20;;;4.65;;
16775;SDS011;8505;49.456;8.164;2022-07-11T12:35:54;6.75;;;4.40;;
16775;SDS011;8505;49.456;8.164;2022-07-11T12:38:23;7.38;;;4.72;;
16775;SDS011;8505;49.456;8.164;2022-07-11T12:40:59;6.45;;;4.88;;
16775;SDS011;8505;49.456;8.164;2022-07-11T12:43:41;8.45;;;4.80;;
16775;SDS011;8505;49.456;8.164;2022-07-11T12:46:28;7.05;;;4.60;;
16775;SDS011;8505;49.456;8.164;2022-07-11T12:48:57;8.23;;;4.82;;
16775;SDS011;8505;49.456;8.164;2022-07-11T12:51:27;8.93;;;5.28;;
16775;SDS011;8505;49.456;8.164;2022-07-11T12:54:04;6.82;;;4.80;;
16775;SDS011;8505;49.456;8.164;2022-07-11T12:56:32;8.63;;;4.93;;
16775;SDS011;8505;49.456;8.164;2022-07-11T12:59:02;8.40;;;4.53;;
16775;SDS011;8505;49.456;8.164;2022-07-11T13:01:36;6.45;;;4.60;;
16775;SDS011;8505;49.456;8.164;2022-07-11T13:04:03;7.18;;;5.00;;
16775;SDS011;8505;49.456;8.164;2022-07-11T13:06:31;7.43;;;4.85;;
16775;SDS011;8505;49.456;8.164;2022-07-11T13:09:16;6.70;;;5.07;;
16775;SDS011;8505;49.456;8.164;2022-07-11T13:11:44;7.43;;;5.05;;
16775;SDS011;8505;49.456;8.164;2022-07-11T13:14:13;9.15;;;4.82;;
16775;SDS011;8505;49.456;8.164;2022-07-11T13:16:58;6.43;;;5.05;;
16775;SDS011;8505;49.456;8.164;2022-07-11T13:19:26;6.93;;;4.78;;
16775;SDS011;8505;49.456;8.164;2022-07-11T13:21:54;7.43;;;4.80;;
16775;SDS011;8505;49.456;8.164;2022-07-11T13:24:22;7.20;;;5.00;;
16775;SDS011;8505;49.456;8.164;2022-07-11T13:26:51;9.70;;;4.88;;
16775;SDS011;8505;49.456;8.164;2022-07-11T13:29:20;6.72;;;4.20;;
16775;SDS011;8505;49.456;8.164;2022-07-11T13:31:48;7.20;;;4.40;;
16775;SDS011;8505;49.456;8.164;2022-07-11T13:34:16;7.88;;;4.50;;
16775;SDS011;8505;49.456;8.164;2022-07-11T13:36:43;6.82;;;4.65;;
16775;SDS011;8505;49.456;8.164;2022-07-11T13:39:11;6.18;;;4.03;;
16775;SDS011;8505;49.456;8.164;2022-07-11T13:41:39;5.22;;;4.18;;
16775;SDS011;8505;49.456;8.164;2022-07-11T13:44:06;6.30;;;4.00;;
16775;SDS011;8505;49.456;8.164;2022-07-11T13:46:36;5.30;;;4.22;;
16775;SDS011;8505;49.456;8.164;2022-07-11T13:49:05;6.43;;;4.40;;
16775;SDS011;8505;49.456;8.164;2022-07-11T13:51:32;7.55;;;4.70;;
16775;SDS011;8505;49.456;8.164;2022-07-11T13:54:00;6.45;;;4.30;;
16775;SDS011;8505;49.456;8.164;2022-07-11T13:56:28;3.67;;;3.10;;
16775;SDS011;8505;49.456;8.164;2022-07-11T13:58:56;5.05;;;3.75;;
16775;SDS011;8505;49.456;8.164;2022-07-11T14:01:24;6.22;;;3.65;;
16775;SDS011;8505;49.456;8.164;2022-07-11T14:03:54;7.55;;;4.03;;
16775;SDS011;8505;49.456;8.164;2022-07-11T14:06:22;5.03;;;3.55;;
16775;SDS011;8505;49.456;8.164;2022-07-11T14:09:10;6.70;;;3.70;;
16775;SDS011;8505;49.456;8.164;2022-07-11T14:11:38;4.93;;;3.90;;
16775;SDS011;8505;49.456;8.164;2022-07-11T14:14:05;5.25;;;3.60;;
16775;SDS011;8505;49.456;8.164;2022-07-11T14:16:33;5.82;;;3.60;;
16775;SDS011;8505;49.456;8.164;2022-07-11T14:19:02;4.72;;;3.45;;
16775;SDS011;8505;49.456;8.164;2022-07-11T14:21:33;6.45;;;3.65;;
16775;SDS011;8505;49.456;8.164;2022-07-11T14:24:01;6.82;;;3.90;;
16775;SDS011;8505;49.456;8.164;2022-07-11T14:26:30;5.10;;;3.70;;
16775;SDS011;8505;49.456;8.164;2022-07-11T14:28:58;4.82;;;3.30;;
16775;SDS011;8505;49.456;8.164;2022-07-11T14:31:30;4.43;;;3.55;;
16775;SDS011;8505;49.456;8.164;2022-07-11T14:33:59;4.75;;;3.22;;
16775;SDS011;8505;49.456;8.164;2022-07-11T14:36:28;7.07;;;3.60;;
16775;SDS011;8505;49.456;8.164;2022-07-11T14:38:56;4.57;;;3.25;;
16775;SDS011;8505;49.456;8.164;2022-07-11T14:41:24;3.90;;;3.00;;
16775;SDS011;8505;49.456;8.164;2022-07-11T14:43:52;6.90;;;3.38;;
16775;SDS011;8505;49.456;8.164;2022-07-11T14:46:19;6.40;;;3.10;;
16775;SDS011;8505;49.456;8.164;2022-07-11T14:48:48;5.10;;;3.67;;
16775;SDS011;8505;49.456;8.164;2022-07-11T14:51:16;8.30;;;3.60;;
16775;SDS011;8505;49.456;8.164;2022-07-11T14:54:05;5.45;;;3.15;;
16775;SDS011;8505;49.456;8.164;2022-07-11T14:56:34;6.90;;;2.95;;
16775;SDS011;8505;49.456;8.164;2022-07-11T14:59:03;5.85;;;3.45;;
16775;SDS011;8505;49.456;8.164;2022-07-11T15:01:31;5.88;;;2.88;;
16775;SDS011;8505;49.456;8.164;2022-07-11T15:03:59;4.78;;;3.15;;
16775;SDS011;8505;49.456;8.164;2022-07-11T15:06:29;6.18;;;3.20;;
16775;SDS011;8505;49.456;8.164;2022-07-11T15:09:16;5.57;;;3.00;;
16775;SDS011;8505;49.456;8.164;2022-07-11T15:12:01;5.78;;;3.15;;
16775;SDS011;8505;49.456;8.164;2022-07-11T15:17:15;4.25;;;2.80;;
16775;SDS011;8505;49.456;8.164;2022-07-11T15:19:43;5.28;;;3.00;;
16775;SDS011;8505;49.456;8.164;2022-07-11T15:22:12;7.15;;;3.50;;
16775;SDS011;8505;49.456;8.164;2022-07-11T15:24:42;6.18;;;3.17;;
16775;SDS011;8505;49.456;8.164;2022-07-11T15:27:10;5.03;;;3.10;;
16775;SDS011;8505;49.456;8.164;2022-07-11T15:29:37;4.43;;;2.90;;
16775;SDS011;8505;49.456;8.164;2022-07-11T15:32:05;3.65;;;2.78;;
16775;SDS011;8505;49.456;8.164;2022-07-11T15:34:33;6.63;;;2.78;;